sensor_id;sensor_type;location;lat;lon;timestamp;P1;durP1;ratioP1;P2;durP2;ratioP2
4939;SDS011;2485;49.326;7.214;2023-03-16T00:02:16;16.47;;;9.23;;
4939;SDS011;2485;49.326;7.214;2023-03-16T00:04:42;15.60;;;9.30;;
4939;SDS011;2485;49.326;7.214;2023-03-16T00:07:11;17.27;;;9.30;;
4939;SDS011;2485;49.326;7.214;2023-03-16T00:09:38;16.23;;;9.73;;
4939;SDS011;2485;49.326;7.214;2023-03-16T00:12:06;21.13;;;8.67;;
4939;SDS011;2485;49.326;7.214;2023-03-16T00:14:32;16.90;;;9.47;;
4939;SDS011;2485;49.326;7.214;2023-03-16T00:17:01;15.87;;;9.30;;
4939;SDS011;2485;49.326;7.214;2023-03-16T00:19:30;16.63;;;8.97;;
4939;SDS011;2485;49.326;7.214;2023-03-16T00:21:59;21.77;;;10.17;;
4939;SDS011;2485;49.326;7.214;2023-03-16T00:24:25;15.37;;;9.00;;
4939;SDS011;2485;49.326;7.214;2023-03-16T00:26:51;16.40;;;8.40;;
4939;SDS011;2485;49.326;7.214;2023-03-16T00:29:18;14.00;;;8.10;;
4939;SDS011;2485;49.326;7.214;2023-03-16T00:31:46;12.83;;;7.70;;
4939;SDS011;2485;49.326;7.214;2023-03-16T00:34:14;15.77;;;8.63;;
4939;SDS011;2485;49.326;7.214;2023-03-16T00:36:40;13.20;;;7.77;;
4939;SDS011;2485;49.326;7.214;2023-03-16T00:39:07;11.90;;;8.50;;
4939;SDS011;2485;49.326;7.214;2023-03-16T00:41:35;15.93;;;8.90;;
4939;SDS011;2485;49.326;7.214;2023-03-16T00:44:02;15.93;;;8.03;;
4939;SDS011;2485;49.326;7.214;2023-03-16T00:46:28;12.33;;;8.30;;
4939;SDS011;2485;49.326;7.214;2023-03-16T00:48:55;13.17;;;8.50;;
4939;SDS011;2485;49.326;7.214;2023-03-16T00:51:22;15.00;;;8.03;;
4939;SDS011;2485;49.326;7.214;2023-03-16T00:53:49;12.43;;;8.00;;
4939;SDS011;2485;49.326;7.214;2023-03-16T00:56:15;14.50;;;8.20;;
4939;SDS011;2485;49.326;7.214;2023-03-16T00:58:42;14.77;;;8.50;;
4939;SDS011;2485;49.326;7.214;2023-03-16T01:01:09;13.57;;;7.80;;
4939;SDS011;2485;49.326;7.214;2023-03-16T01:03:36;12.97;;;7.43;;
4939;SDS011;2485;49.326;7.214;2023-03-16T01:06:02;13.33;;;7.30;;
4939;SDS011;2485;49.326;7.214;2023-03-16T01:08:31;12.07;;;7.67;;
4939;SDS011;2485;49.326;7.214;2023-03-16T01:11:00;12.40;;;7.70;;
4939;SDS011;2485;49.326;7.214;2023-03-16T01:13:27;14.00;;;7.83;;
4939;SDS011;2485;49.326;7.214;2023-03-16T01:15:53;13.00;;;8.20;;
4939;SDS011;2485;49.326;7.214;2023-03-16T01:18:20;13.17;;;7.70;;
4939;SDS011;2485;49.326;7.214;2023-03-16T01:20:47;16.33;;;8.70;;
4939;SDS011;2485;49.326;7.214;2023-03-16T01:23:15;13.00;;;7.87;;
4939;SDS011;2485;49.326;7.214;2023-03-16T01:25:42;13.73;;;7.73;;
4939;SDS011;2485;49.326;7.214;2023-03-16T01:28:16;11.80;;;7.60;;
4939;SDS011;2485;49.326;7.214;2023-03-16T01:30:43;12.13;;;7.90;;
4939;SDS011;2485;49.326;7.214;2023-03-16T01:33:09;15.47;;;8.30;;
4939;SDS011;2485;49.326;7.214;2023-03-16T01:35:35;12.83;;;7.37;;
4939;SDS011;2485;49.326;7.214;2023-03-16T01:38:02;12.73;;;7.87;;
4939;SDS011;2485;49.326;7.214;2023-03-16T01:40:29;12.97;;;8.13;;
4939;SDS011;2485;49.326;7.214;2023-03-16T01:43:00;12.50;;;7.80;;
4939;SDS011;2485;49.326;7.214;2023-03-16T01:48:14;11.50;;;7.50;;
4939;SDS011;2485;49.326;7.214;2023-03-16T01:50:40;12.37;;;7.83;;
4939;SDS011;2485;49.326;7.214;2023-03-16T01:53:07;13.20;;;7.70;;
4939;SDS011;2485;49.326;7.214;2023-03-16T01:55:33;12.90;;;7.57;;
4939;SDS011;2485;49.326;7.214;2023-03-16T01:58:01;15.50;;;8.17;;
4939;SDS011;2485;49.326;7.214;2023-03-16T02:00:28;12.87;;;7.80;;
4939;SDS011;2485;49.326;7.214;2023-03-16T02:02:57;14.00;;;8.13;;
4939;SDS011;2485;49.326;7.214;2023-03-16T02:05:27;16.70;;;7.80;;
4939;SDS011;2485;49.326;7.214;2023-03-16T02:07:57;14.60;;;8.63;;
4939;SDS011;2485;49.326;7.214;2023-03-16T02:10:25;15.63;;;8.70;;
4939;SDS011;2485;49.326;7.214;2023-03-16T02:12:52;13.03;;;7.47;;
4939;SDS011;2485;49.326;7.214;2023-03-16T02:15:20;16.50;;;8.50;;
4939;SDS011;2485;49.326;7.214;2023-03-16T02:17:46;12.00;;;7.50;;
4939;SDS011;2485;49.326;7.214;2023-03-16T02:20:18;17.87;;;8.97;;
4939;SDS011;2485;49.326;7.214;2023-03-16T02:22:48;13.00;;;7.77;;
4939;SDS011;2485;49.326;7.214;2023-03-16T02:25:18;17.53;;;8.40;;
4939;SDS011;2485;49.326;7.214;2023-03-16T02:27:47;17.20;;;8.10;;
4939;SDS011;2485;49.326;7.214;2023-03-16T02:30:18;16.27;;;9.00;;
4939;SDS011;2485;49.326;7.214;2023-03-16T02:32:45;16.53;;;8.60;;
4939;SDS011;2485;49.326;7.214;2023-03-16T02:35:13;16.13;;;9.90;;
4939;SDS011;2485;49.326;7.214;2023-03-16T02:37:39;14.57;;;8.03;;
4939;SDS011;2485;49.326;7.214;2023-03-16T02:40:15;14.53;;;8.63;;
4939;SDS011;2485;49.326;7.214;2023-03-16T02:42:43;15.17;;;9.30;;
4939;SDS011;2485;49.326;7.214;2023-03-16T02:45:09;16.77;;;9.30;;
4939;SDS011;2485;49.326;7.214;2023-03-16T02:47:39;15.10;;;8.93;;
4939;SDS011;2485;49.326;7.214;2023-03-16T02:50:10;19.43;;;10.40;;
4939;SDS011;2485;49.326;7.214;2023-03-16T02:52:37;19.80;;;9.33;;
4939;SDS011;2485;49.326;7.214;2023-03-16T02:55:03;16.87;;;9.20;;
4939;SDS011;2485;49.326;7.214;2023-03-16T02:57:30;21.27;;;9.83;;
4939;SDS011;2485;49.326;7.214;2023-03-16T02:59:56;19.63;;;9.93;;
4939;SDS011;2485;49.326;7.214;2023-03-16T03:02:23;21.87;;;9.90;;
4939;SDS011;2485;49.326;7.214;2023-03-16T03:04:51;16.80;;;9.50;;
4939;SDS011;2485;49.326;7.214;2023-03-16T03:07:18;21.57;;;9.83;;
4939;SDS011;2485;49.326;7.214;2023-03-16T03:09:45;24.23;;;9.90;;
4939;SDS011;2485;49.326;7.214;2023-03-16T03:12:11;16.07;;;9.53;;
4939;SDS011;2485;49.326;7.214;2023-03-16T03:14:38;17.93;;;10.00;;
4939;SDS011;2485;49.326;7.214;2023-03-16T03:17:05;14.90;;;9.00;;
4939;SDS011;2485;49.326;7.214;2023-03-16T03:19:31;18.37;;;9.93;;
4939;SDS011;2485;49.326;7.214;2023-03-16T03:21:59;22.77;;;9.90;;
4939;SDS011;2485;49.326;7.214;2023-03-16T03:24:28;15.90;;;9.70;;
4939;SDS011;2485;49.326;7.214;2023-03-16T03:26:54;17.07;;;9.80;;
4939;SDS011;2485;49.326;7.214;2023-03-16T03:29:20;17.70;;;10.20;;
4939;SDS011;2485;49.326;7.214;2023-03-16T03:31:47;17.50;;;9.93;;
4939;SDS011;2485;49.326;7.214;2023-03-16T03:34:13;19.80;;;10.33;;
4939;SDS011;2485;49.326;7.214;2023-03-16T03:36:39;18.80;;;9.10;;
4939;SDS011;2485;49.326;7.214;2023-03-16T03:39:07;17.17;;;9.50;;
4939;SDS011;2485;49.326;7.214;2023-03-16T03:41:34;16.00;;;8.90;;
4939;SDS011;2485;49.326;7.214;2023-03-16T03:44:00;17.10;;;10.00;;
4939;SDS011;2485;49.326;7.214;2023-03-16T03:46:26;19.67;;;9.33;;
4939;SDS011;2485;49.326;7.214;2023-03-16T03:48:53;18.10;;;10.23;;
4939;SDS011;2485;49.326;7.214;2023-03-16T03:51:19;15.03;;;8.93;;
4939;SDS011;2485;49.326;7.214;2023-03-16T03:53:46;15.63;;;8.43;;
4939;SDS011;2485;49.326;7.214;2023-03-16T03:56:13;18.80;;;9.40;;
4939;SDS011;2485;49.326;7.214;2023-03-16T03:58:40;15.10;;;8.73;;
4939;SDS011;2485;49.326;7.214;2023-03-16T04:01:06;17.10;;;8.80;;
4939;SDS011;2485;49.326;7.214;2023-03-16T04:03:32;14.37;;;8.57;;
4939;SDS011;2485;49.326;7.214;2023-03-16T04:05:59;18.03;;;9.20;;
4939;SDS011;2485;49.326;7.214;2023-03-16T04:08:25;15.30;;;9.00;;
4939;SDS011;2485;49.326;7.214;2023-03-16T04:10:51;14.00;;;8.90;;
4939;SDS011;2485;49.326;7.214;2023-03-16T04:13:19;16.67;;;8.80;;
4939;SDS011;2485;49.326;7.214;2023-03-16T04:15:45;20.07;;;10.10;;
4939;SDS011;2485;49.326;7.214;2023-03-16T04:18:12;15.50;;;9.23;;
4939;SDS011;2485;49.326;7.214;2023-03-16T04:20:38;14.40;;;7.97;;
4939;SDS011;2485;49.326;7.214;2023-03-16T04:23:04;16.83;;;9.00;;
4939;SDS011;2485;49.326;7.214;2023-03-16T04:25:31;16.60;;;9.70;;
4939;SDS011;2485;49.326;7.214;2023-03-16T04:27:57;19.77;;;9.97;;
4939;SDS011;2485;49.326;7.214;2023-03-16T04:30:25;16.27;;;8.60;;
4939;SDS011;2485;49.326;7.214;2023-03-16T04:32:51;14.03;;;8.60;;
4939;SDS011;2485;49.326;7.214;2023-03-16T04:35:17;20.43;;;8.90;;
4939;SDS011;2485;49.326;7.214;2023-03-16T04:37:44;17.30;;;9.17;;
4939;SDS011;2485;49.326;7.214;2023-03-16T04:40:10;19.83;;;9.47;;
4939;SDS011;2485;49.326;7.214;2023-03-16T04:42:45;12.67;;;8.13;;
4939;SDS011;2485;49.326;7.214;2023-03-16T04:45:12;15.03;;;9.00;;
4939;SDS011;2485;49.326;7.214;2023-03-16T04:47:40;14.70;;;9.03;;
4939;SDS011;2485;49.326;7.214;2023-03-16T04:50:07;19.20;;;9.37;;
4939;SDS011;2485;49.326;7.214;2023-03-16T04:52:34;19.90;;;10.00;;
4939;SDS011;2485;49.326;7.214;2023-03-16T04:55:00;16.07;;;9.90;;
4939;SDS011;2485;49.326;7.214;2023-03-16T04:57:27;17.47;;;9.63;;
4939;SDS011;2485;49.326;7.214;2023-03-16T04:59:54;19.33;;;9.37;;
4939;SDS011;2485;49.326;7.214;2023-03-16T05:02:20;15.60;;;9.60;;
4939;SDS011;2485;49.326;7.214;2023-03-16T05:04:48;19.13;;;9.57;;
4939;SDS011;2485;49.326;7.214;2023-03-16T05:07:15;17.73;;;9.77;;
4939;SDS011;2485;49.326;7.214;2023-03-16T05:09:41;20.40;;;10.33;;
4939;SDS011;2485;49.326;7.214;2023-03-16T05:12:07;15.70;;;8.47;;
4939;SDS011;2485;49.326;7.214;2023-03-16T05:14:34;17.97;;;9.87;;
4939;SDS011;2485;49.326;7.214;2023-03-16T05:17:01;25.80;;;10.33;;
4939;SDS011;2485;49.326;7.214;2023-03-16T05:19:28;19.37;;;9.37;;
4939;SDS011;2485;49.326;7.214;2023-03-16T05:21:56;18.03;;;10.27;;
4939;SDS011;2485;49.326;7.214;2023-03-16T05:24:23;19.07;;;9.80;;
4939;SDS011;2485;49.326;7.214;2023-03-16T05:26:49;19.47;;;10.20;;
4939;SDS011;2485;49.326;7.214;2023-03-16T05:29:16;18.43;;;9.90;;
4939;SDS011;2485;49.326;7.214;2023-03-16T05:31:42;21.40;;;10.70;;
4939;SDS011;2485;49.326;7.214;2023-03-16T05:34:10;20.70;;;10.47;;
4939;SDS011;2485;49.326;7.214;2023-03-16T05:36:37;23.27;;;10.80;;
4939;SDS011;2485;49.326;7.214;2023-03-16T05:39:04;21.30;;;11.07;;
4939;SDS011;2485;49.326;7.214;2023-03-16T05:41:32;18.33;;;9.93;;
4939;SDS011;2485;49.326;7.214;2023-03-16T05:43:58;24.40;;;10.77;;
4939;SDS011;2485;49.326;7.214;2023-03-16T05:46:25;18.60;;;10.10;;
4939;SDS011;2485;49.326;7.214;2023-03-16T05:48:51;21.30;;;10.57;;
4939;SDS011;2485;49.326;7.214;2023-03-16T05:51:17;18.90;;;10.90;;
4939;SDS011;2485;49.326;7.214;2023-03-16T05:53:44;20.00;;;11.30;;
4939;SDS011;2485;49.326;7.214;2023-03-16T05:56:12;28.83;;;12.43;;
4939;SDS011;2485;49.326;7.214;2023-03-16T05:58:39;28.73;;;11.90;;
4939;SDS011;2485;49.326;7.214;2023-03-16T06:01:06;22.77;;;11.77;;
4939;SDS011;2485;49.326;7.214;2023-03-16T06:03:36;20.77;;;10.70;;
4939;SDS011;2485;49.326;7.214;2023-03-16T06:06:03;23.80;;;11.50;;
4939;SDS011;2485;49.326;7.214;2023-03-16T06:08:29;21.73;;;11.63;;
4939;SDS011;2485;49.326;7.214;2023-03-16T06:10:56;23.07;;;11.87;;
4939;SDS011;2485;49.326;7.214;2023-03-16T06:13:23;22.17;;;12.77;;
4939;SDS011;2485;49.326;7.214;2023-03-16T06:15:49;20.80;;;11.47;;
4939;SDS011;2485;49.326;7.214;2023-03-16T06:18:16;25.23;;;12.30;;
4939;SDS011;2485;49.326;7.214;2023-03-16T06:20:42;26.53;;;12.53;;
4939;SDS011;2485;49.326;7.214;2023-03-16T06:23:12;22.23;;;12.87;;
4939;SDS011;2485;49.326;7.214;2023-03-16T06:25:38;25.43;;;12.07;;
4939;SDS011;2485;49.326;7.214;2023-03-16T06:28:05;24.90;;;12.40;;
4939;SDS011;2485;49.326;7.214;2023-03-16T06:30:32;20.73;;;11.37;;
4939;SDS011;2485;49.326;7.214;2023-03-16T06:32:59;22.33;;;11.90;;
4939;SDS011;2485;49.326;7.214;2023-03-16T06:35:26;24.83;;;12.30;;
4939;SDS011;2485;49.326;7.214;2023-03-16T06:37:52;20.10;;;11.57;;
4939;SDS011;2485;49.326;7.214;2023-03-16T06:40:18;20.50;;;11.30;;
4939;SDS011;2485;49.326;7.214;2023-03-16T06:42:45;24.07;;;12.77;;
4939;SDS011;2485;49.326;7.214;2023-03-16T06:45:12;19.80;;;10.90;;
4939;SDS011;2485;49.326;7.214;2023-03-16T06:47:41;20.20;;;10.93;;
4939;SDS011;2485;49.326;7.214;2023-03-16T06:50:08;19.40;;;11.03;;
4939;SDS011;2485;49.326;7.214;2023-03-16T06:52:35;22.90;;;11.20;;
4939;SDS011;2485;49.326;7.214;2023-03-16T06:55:02;24.53;;;11.90;;
4939;SDS011;2485;49.326;7.214;2023-03-16T06:57:28;19.43;;;10.73;;
4939;SDS011;2485;49.326;7.214;2023-03-16T06:59:55;19.47;;;10.00;;
4939;SDS011;2485;49.326;7.214;2023-03-16T07:02:21;20.20;;;11.30;;
4939;SDS011;2485;49.326;7.214;2023-03-16T07:04:49;15.70;;;9.30;;
4939;SDS011;2485;49.326;7.214;2023-03-16T07:07:16;14.83;;;9.80;;
4939;SDS011;2485;49.326;7.214;2023-03-16T07:09:43;18.93;;;9.20;;
4939;SDS011;2485;49.326;7.214;2023-03-16T07:12:09;21.37;;;10.63;;
4939;SDS011;2485;49.326;7.214;2023-03-16T07:14:36;17.47;;;9.40;;
4939;SDS011;2485;49.326;7.214;2023-03-16T07:17:02;23.73;;;10.10;;
4939;SDS011;2485;49.326;7.214;2023-03-16T07:19:29;19.43;;;9.93;;
4939;SDS011;2485;49.326;7.214;2023-03-16T07:21:56;20.73;;;10.90;;
4939;SDS011;2485;49.326;7.214;2023-03-16T07:24:23;16.10;;;8.67;;
4939;SDS011;2485;49.326;7.214;2023-03-16T07:26:49;16.03;;;8.63;;
4939;SDS011;2485;49.326;7.214;2023-03-16T07:29:17;12.83;;;8.20;;
4939;SDS011;2485;49.326;7.214;2023-03-16T07:31:43;18.33;;;8.90;;
4939;SDS011;2485;49.326;7.214;2023-03-16T07:34:09;16.13;;;8.07;;
4939;SDS011;2485;49.326;7.214;2023-03-16T07:36:36;10.37;;;6.60;;
4939;SDS011;2485;49.326;7.214;2023-03-16T07:39:03;8.67;;;5.10;;
4939;SDS011;2485;49.326;7.214;2023-03-16T07:41:30;12.70;;;6.30;;
4939;SDS011;2485;49.326;7.214;2023-03-16T07:43:57;11.30;;;7.47;;
4939;SDS011;2485;49.326;7.214;2023-03-16T07:46:23;9.53;;;6.67;;
4939;SDS011;2485;49.326;7.214;2023-03-16T07:48:50;7.57;;;4.47;;
4939;SDS011;2485;49.326;7.214;2023-03-16T07:51:16;9.87;;;5.10;;
4939;SDS011;2485;49.326;7.214;2023-03-16T07:53:42;12.37;;;5.80;;
4939;SDS011;2485;49.326;7.214;2023-03-16T07:56:10;7.27;;;5.50;;
4939;SDS011;2485;49.326;7.214;2023-03-16T07:58:37;10.03;;;5.80;;
4939;SDS011;2485;49.326;7.214;2023-03-16T08:01:03;10.23;;;4.40;;
4939;SDS011;2485;49.326;7.214;2023-03-16T08:03:29;12.10;;;6.33;;
4939;SDS011;2485;49.326;7.214;2023-03-16T08:05:56;10.33;;;5.23;;
4939;SDS011;2485;49.326;7.214;2023-03-16T08:08:22;9.77;;;5.40;;
4939;SDS011;2485;49.326;7.214;2023-03-16T08:10:49;7.00;;;5.00;;
4939;SDS011;2485;49.326;7.214;2023-03-16T08:13:18;7.40;;;4.90;;
4939;SDS011;2485;49.326;7.214;2023-03-16T08:15:45;6.77;;;4.63;;
4939;SDS011;2485;49.326;7.214;2023-03-16T08:18:11;7.60;;;4.67;;
4939;SDS011;2485;49.326;7.214;2023-03-16T08:20:38;6.83;;;4.63;;
4939;SDS011;2485;49.326;7.214;2023-03-16T08:23:05;6.03;;;4.53;;
4939;SDS011;2485;49.326;7.214;2023-03-16T08:25:32;9.27;;;4.43;;
4939;SDS011;2485;49.326;7.214;2023-03-16T08:27:58;7.57;;;4.80;;
4939;SDS011;2485;49.326;7.214;2023-03-16T08:30:26;15.00;;;5.23;;
4939;SDS011;2485;49.326;7.214;2023-03-16T08:32:54;8.57;;;5.00;;
4939;SDS011;2485;49.326;7.214;2023-03-16T08:35:21;7.30;;;4.43;;
4939;SDS011;2485;49.326;7.214;2023-03-16T08:37:47;11.87;;;5.00;;
4939;SDS011;2485;49.326;7.214;2023-03-16T08:40:14;6.50;;;4.67;;
4939;SDS011;2485;49.326;7.214;2023-03-16T08:42:41;6.10;;;3.50;;
4939;SDS011;2485;49.326;7.214;2023-03-16T08:45:09;5.73;;;4.10;;
4939;SDS011;2485;49.326;7.214;2023-03-16T08:47:37;6.47;;;4.57;;
4939;SDS011;2485;49.326;7.214;2023-03-16T08:50:04;9.40;;;4.00;;
4939;SDS011;2485;49.326;7.214;2023-03-16T08:52:31;10.70;;;4.70;;
4939;SDS011;2485;49.326;7.214;2023-03-16T08:54:57;8.80;;;4.80;;
4939;SDS011;2485;49.326;7.214;2023-03-16T08:57:24;6.67;;;4.30;;
4939;SDS011;2485;49.326;7.214;2023-03-16T08:59:51;4.67;;;3.57;;
4939;SDS011;2485;49.326;7.214;2023-03-16T09:02:17;6.17;;;4.30;;
4939;SDS011;2485;49.326;7.214;2023-03-16T09:04:46;7.03;;;3.90;;
4939;SDS011;2485;49.326;7.214;2023-03-16T09:07:12;7.10;;;3.87;;
4939;SDS011;2485;49.326;7.214;2023-03-16T09:09:38;8.00;;;4.77;;
4939;SDS011;2485;49.326;7.214;2023-03-16T09:12:05;9.53;;;3.83;;
4939;SDS011;2485;49.326;7.214;2023-03-16T09:14:32;7.50;;;4.80;;
4939;SDS011;2485;49.326;7.214;2023-03-16T09:16:59;8.77;;;4.80;;
4939;SDS011;2485;49.326;7.214;2023-03-16T09:19:25;7.20;;;3.80;;
4939;SDS011;2485;49.326;7.214;2023-03-16T09:21:53;9.40;;;4.33;;
4939;SDS011;2485;49.326;7.214;2023-03-16T09:24:19;9.27;;;4.50;;
4939;SDS011;2485;49.326;7.214;2023-03-16T09:26:46;6.67;;;3.93;;
4939;SDS011;2485;49.326;7.214;2023-03-16T09:29:12;8.70;;;4.27;;
4939;SDS011;2485;49.326;7.214;2023-03-16T09:31:38;8.23;;;4.00;;
4939;SDS011;2485;49.326;7.214;2023-03-16T09:34:05;6.80;;;3.40;;
4939;SDS011;2485;49.326;7.214;2023-03-16T09:36:31;5.13;;;2.90;;
4939;SDS011;2485;49.326;7.214;2023-03-16T09:38:59;11.10;;;3.30;;
4939;SDS011;2485;49.326;7.214;2023-03-16T09:41:31;4.97;;;3.07;;
4939;SDS011;2485;49.326;7.214;2023-03-16T09:44:04;9.60;;;3.07;;
4939;SDS011;2485;49.326;7.214;2023-03-16T09:46:35;9.93;;;3.03;;
4939;SDS011;2485;49.326;7.214;2023-03-16T09:49:04;7.53;;;3.00;;
4939;SDS011;2485;49.326;7.214;2023-03-16T09:51:34;3.87;;;2.70;;
4939;SDS011;2485;49.326;7.214;2023-03-16T09:54:04;4.27;;;2.50;;
4939;SDS011;2485;49.326;7.214;2023-03-16T09:59:18;2.83;;;1.50;;
4939;SDS011;2485;49.326;7.214;2023-03-16T10:04:49;3.63;;;1.67;;
4939;SDS011;2485;49.326;7.214;2023-03-16T10:07:24;2.83;;;1.40;;
4939;SDS011;2485;49.326;7.214;2023-03-16T10:10:01;2.10;;;1.60;;
4939;SDS011;2485;49.326;7.214;2023-03-16T10:12:32;1.43;;;1.30;;
4939;SDS011;2485;49.326;7.214;2023-03-16T10:15:02;3.73;;;1.90;;
4939;SDS011;2485;49.326;7.214;2023-03-16T10:17:31;7.00;;;1.70;;
4939;SDS011;2485;49.326;7.214;2023-03-16T10:20:01;3.00;;;1.57;;
4939;SDS011;2485;49.326;7.214;2023-03-16T10:22:33;2.80;;;1.20;;
4939;SDS011;2485;49.326;7.214;2023-03-16T10:25:03;2.93;;;1.70;;
4939;SDS011;2485;49.326;7.214;2023-03-16T10:27:32;2.83;;;2.10;;
4939;SDS011;2485;49.326;7.214;2023-03-16T10:30:01;4.80;;;1.80;;
4939;SDS011;2485;49.326;7.214;2023-03-16T10:32:29;2.00;;;1.40;;
4939;SDS011;2485;49.326;7.214;2023-03-16T10:34:57;2.63;;;1.30;;
4939;SDS011;2485;49.326;7.214;2023-03-16T10:37:25;2.40;;;1.43;;
4939;SDS011;2485;49.326;7.214;2023-03-16T10:39:55;5.50;;;2.00;;
4939;SDS011;2485;49.326;7.214;2023-03-16T10:42:26;2.47;;;1.40;;
4939;SDS011;2485;49.326;7.214;2023-03-16T10:44:56;2.43;;;1.50;;
4939;SDS011;2485;49.326;7.214;2023-03-16T10:47:23;5.03;;;1.73;;
4939;SDS011;2485;49.326;7.214;2023-03-16T10:49:53;4.37;;;1.87;;
4939;SDS011;2485;49.326;7.214;2023-03-16T10:52:21;1.47;;;1.13;;
4939;SDS011;2485;49.326;7.214;2023-03-16T10:54:50;3.10;;;1.60;;
4939;SDS011;2485;49.326;7.214;2023-03-16T10:57:22;5.33;;;2.77;;
4939;SDS011;2485;49.326;7.214;2023-03-16T10:59:51;3.60;;;1.67;;
4939;SDS011;2485;49.326;7.214;2023-03-16T11:02:19;5.73;;;1.50;;
4939;SDS011;2485;49.326;7.214;2023-03-16T11:04:47;1.60;;;1.50;;
4939;SDS011;2485;49.326;7.214;2023-03-16T11:07:14;1.67;;;1.10;;
4939;SDS011;2485;49.326;7.214;2023-03-16T11:09:41;2.33;;;1.20;;
4939;SDS011;2485;49.326;7.214;2023-03-16T11:12:12;1.80;;;1.30;;
4939;SDS011;2485;49.326;7.214;2023-03-16T11:14:41;2.50;;;1.47;;
4939;SDS011;2485;49.326;7.214;2023-03-16T11:17:11;3.33;;;1.40;;
4939;SDS011;2485;49.326;7.214;2023-03-16T11:19:40;2.30;;;1.20;;
4939;SDS011;2485;49.326;7.214;2023-03-16T11:22:11;1.47;;;1.27;;
4939;SDS011;2485;49.326;7.214;2023-03-16T11:24:41;1.40;;;1.10;;
4939;SDS011;2485;49.326;7.214;2023-03-16T11:27:10;1.83;;;1.30;;
4939;SDS011;2485;49.326;7.214;2023-03-16T11:29:45;2.90;;;1.60;;
4939;SDS011;2485;49.326;7.214;2023-03-16T11:32:15;1.93;;;1.43;;
4939;SDS011;2485;49.326;7.214;2023-03-16T11:34:44;1.80;;;1.23;;
4939;SDS011;2485;49.326;7.214;2023-03-16T11:37:13;1.37;;;1.27;;
4939;SDS011;2485;49.326;7.214;2023-03-16T11:39:47;3.23;;;2.17;;
4939;SDS011;2485;49.326;7.214;2023-03-16T11:42:22;3.30;;;1.40;;
4939;SDS011;2485;49.326;7.214;2023-03-16T11:44:50;1.93;;;1.27;;
4939;SDS011;2485;49.326;7.214;2023-03-16T11:50:12;1.80;;;1.43;;
4939;SDS011;2485;49.326;7.214;2023-03-16T11:52:44;1.47;;;1.37;;
4939;SDS011;2485;49.326;7.214;2023-03-16T11:55:16;8.63;;;4.80;;
4939;SDS011;2485;49.326;7.214;2023-03-16T11:57:48;8.20;;;3.93;;
4939;SDS011;2485;49.326;7.214;2023-03-16T12:00:19;4.50;;;1.83;;
4939;SDS011;2485;49.326;7.214;2023-03-16T12:02:58;2.40;;;1.10;;
4939;SDS011;2485;49.326;7.214;2023-03-16T12:05:43;4.50;;;1.30;;
4939;SDS011;2485;49.326;7.214;2023-03-16T12:10:57;2.40;;;1.00;;
4939;SDS011;2485;49.326;7.214;2023-03-16T12:13:29;1.87;;;1.50;;
4939;SDS011;2485;49.326;7.214;2023-03-16T12:15:58;2.53;;;1.57;;
4939;SDS011;2485;49.326;7.214;2023-03-16T12:18:28;3.77;;;1.13;;
4939;SDS011;2485;49.326;7.214;2023-03-16T12:20:57;1.20;;;1.10;;
4939;SDS011;2485;49.326;7.214;2023-03-16T12:23:25;2.87;;;1.20;;
4939;SDS011;2485;49.326;7.214;2023-03-16T12:25:54;1.20;;;1.10;;
4939;SDS011;2485;49.326;7.214;2023-03-16T12:28:22;1.80;;;1.30;;
4939;SDS011;2485;49.326;7.214;2023-03-16T12:30:52;2.23;;;1.60;;
4939;SDS011;2485;49.326;7.214;2023-03-16T12:33:25;4.30;;;1.13;;
4939;SDS011;2485;49.326;7.214;2023-03-16T12:35:54;1.63;;;1.20;;
4939;SDS011;2485;49.326;7.214;2023-03-16T12:38:27;1.60;;;1.10;;
4939;SDS011;2485;49.326;7.214;2023-03-16T12:41:02;1.87;;;1.17;;
4939;SDS011;2485;49.326;7.214;2023-03-16T12:43:37;1.10;;;0.90;;
4939;SDS011;2485;49.326;7.214;2023-03-16T12:46:07;3.20;;;1.50;;
4939;SDS011;2485;49.326;7.214;2023-03-16T12:48:36;1.30;;;1.20;;
4939;SDS011;2485;49.326;7.214;2023-03-16T12:51:03;1.67;;;1.30;;
4939;SDS011;2485;49.326;7.214;2023-03-16T12:53:42;1.97;;;1.33;;
4939;SDS011;2485;49.326;7.214;2023-03-16T12:56:10;1.83;;;1.20;;
4939;SDS011;2485;49.326;7.214;2023-03-16T12:58:39;2.70;;;1.10;;
4939;SDS011;2485;49.326;7.214;2023-03-16T13:01:07;3.03;;;1.30;;
4939;SDS011;2485;49.326;7.214;2023-03-16T13:03:35;2.03;;;1.37;;
4939;SDS011;2485;49.326;7.214;2023-03-16T13:06:02;1.50;;;1.30;;
4939;SDS011;2485;49.326;7.214;2023-03-16T13:08:38;1.70;;;1.20;;
4939;SDS011;2485;49.326;7.214;2023-03-16T13:11:08;5.17;;;1.20;;
4939;SDS011;2485;49.326;7.214;2023-03-16T13:13:36;1.47;;;1.20;;
4939;SDS011;2485;49.326;7.214;2023-03-16T13:16:21;1.23;;;1.13;;
4939;SDS011;2485;49.326;7.214;2023-03-16T13:18:48;4.87;;;2.70;;
4939;SDS011;2485;49.326;7.214;2023-03-16T13:21:17;2.53;;;1.70;;
4939;SDS011;2485;49.326;7.214;2023-03-16T13:23:54;2.53;;;1.60;;
4939;SDS011;2485;49.326;7.214;2023-03-16T13:26:25;2.87;;;1.90;;
4939;SDS011;2485;49.326;7.214;2023-03-16T13:28:54;1.53;;;1.30;;
4939;SDS011;2485;49.326;7.214;2023-03-16T13:31:23;2.27;;;1.53;;
4939;SDS011;2485;49.326;7.214;2023-03-16T13:33:51;1.57;;;1.30;;
4939;SDS011;2485;49.326;7.214;2023-03-16T13:36:18;1.60;;;1.50;;
4939;SDS011;2485;49.326;7.214;2023-03-16T13:38:54;1.93;;;1.40;;
4939;SDS011;2485;49.326;7.214;2023-03-16T13:41:21;1.77;;;1.17;;
4939;SDS011;2485;49.326;7.214;2023-03-16T13:43:50;1.67;;;1.30;;
4939;SDS011;2485;49.326;7.214;2023-03-16T13:46:17;1.67;;;1.20;;
4939;SDS011;2485;49.326;7.214;2023-03-16T13:48:45;1.57;;;1.10;;
4939;SDS011;2485;49.326;7.214;2023-03-16T13:51:12;2.60;;;1.20;;
4939;SDS011;2485;49.326;7.214;2023-03-16T13:53:40;1.87;;;1.17;;
4939;SDS011;2485;49.326;7.214;2023-03-16T13:56:11;1.93;;;1.20;;
4939;SDS011;2485;49.326;7.214;2023-03-16T13:58:38;1.57;;;1.27;;
4939;SDS011;2485;49.326;7.214;2023-03-16T14:01:13;2.50;;;1.40;;
4939;SDS011;2485;49.326;7.214;2023-03-16T14:03:42;2.43;;;1.50;;
4939;SDS011;2485;49.326;7.214;2023-03-16T14:06:17;3.10;;;1.80;;
4939;SDS011;2485;49.326;7.214;2023-03-16T14:08:44;2.50;;;1.37;;
4939;SDS011;2485;49.326;7.214;2023-03-16T14:11:12;1.40;;;1.10;;
4939;SDS011;2485;49.326;7.214;2023-03-16T14:13:39;1.40;;;1.13;;
4939;SDS011;2485;49.326;7.214;2023-03-16T14:16:09;1.60;;;1.33;;
4939;SDS011;2485;49.326;7.214;2023-03-16T14:18:47;2.80;;;1.50;;
4939;SDS011;2485;49.326;7.214;2023-03-16T14:21:31;2.40;;;1.30;;
4939;SDS011;2485;49.326;7.214;2023-03-16T14:24:01;2.23;;;1.20;;
4939;SDS011;2485;49.326;7.214;2023-03-16T14:26:37;1.40;;;1.10;;
4939;SDS011;2485;49.326;7.214;2023-03-16T14:29:07;1.30;;;1.17;;
4939;SDS011;2485;49.326;7.214;2023-03-16T14:31:49;1.63;;;1.33;;
4939;SDS011;2485;49.326;7.214;2023-03-16T14:34:36;1.70;;;1.10;;
4939;SDS011;2485;49.326;7.214;2023-03-16T14:43:29;1.70;;;1.60;;
4939;SDS011;2485;49.326;7.214;2023-03-16T14:46:01;1.87;;;1.43;;
4939;SDS011;2485;49.326;7.214;2023-03-16T14:48:33;2.20;;;1.80;;
4939;SDS011;2485;49.326;7.214;2023-03-16T14:53:54;1.87;;;1.47;;
4939;SDS011;2485;49.326;7.214;2023-03-16T14:56:30;1.70;;;1.37;;
4939;SDS011;2485;49.326;7.214;2023-03-16T14:59:11;1.40;;;1.17;;
4939;SDS011;2485;49.326;7.214;2023-03-16T15:01:41;2.57;;;2.10;;
4939;SDS011;2485;49.326;7.214;2023-03-16T15:04:23;1.60;;;1.50;;
4939;SDS011;2485;49.326;7.214;2023-03-16T15:06:51;2.60;;;1.50;;
4939;SDS011;2485;49.326;7.214;2023-03-16T15:09:26;2.47;;;1.50;;
4939;SDS011;2485;49.326;7.214;2023-03-16T15:11:58;7.53;;;3.20;;
4939;SDS011;2485;49.326;7.214;2023-03-16T15:14:26;1.90;;;1.47;;
4939;SDS011;2485;49.326;7.214;2023-03-16T15:17:11;3.27;;;1.50;;
4939;SDS011;2485;49.326;7.214;2023-03-16T15:19:37;1.97;;;1.50;;
4939;SDS011;2485;49.326;7.214;2023-03-16T15:22:05;1.27;;;1.10;;
4939;SDS011;2485;49.326;7.214;2023-03-16T15:24:38;1.77;;;1.30;;
4939;SDS011;2485;49.326;7.214;2023-03-16T15:27:11;2.00;;;1.40;;
4939;SDS011;2485;49.326;7.214;2023-03-16T15:29:44;1.53;;;1.20;;
4939;SDS011;2485;49.326;7.214;2023-03-16T15:32:13;1.67;;;1.13;;
4939;SDS011;2485;49.326;7.214;2023-03-16T15:34:41;1.57;;;1.47;;
4939;SDS011;2485;49.326;7.214;2023-03-16T15:37:10;3.87;;;1.27;;